sensor_id;sensor_type;location;lat;lon;timestamp;temperature;humidity
16160;DHT22;8185;57.818;15.224;2022-12-29T00:00:05;4.00;99.90
16160;DHT22;8185;57.818;15.224;2022-12-29T00:02:32;3.90;99.90
16160;DHT22;8185;57.818;15.224;2022-12-29T00:04:59;4.00;99.90
16160;DHT22;8185;57.818;15.224;2022-12-29T00:07:26;4.00;99.90
16160;DHT22;8185;57.818;15.224;2022-12-29T00:09:53;3.90;99.90
16160;DHT22;8185;57.818;15.224;2022-12-29T00:12:20;4.00;99.90
16160;DHT22;8185;57.818;15.224;2022-12-29T00:14:48;4.00;99.90
16160;DHT22;8185;57.818;15.224;2022-12-29T00:17:33;4.00;99.90
16160;DHT22;8185;57.818;15.224;2022-12-29T00:20:00;4.00;99.90
16160;DHT22;8185;57.818;15.224;2022-12-29T00:22:44;4.00;99.90
16160;DHT22;8185;57.818;15.224;2022-12-29T00:25:28;4.00;99.90
16160;DHT22;8185;57.818;15.224;2022-12-29T00:28:12;4.10;99.90
16160;DHT22;8185;57.818;15.224;2022-12-29T00:31:00;4.00;99.90
16160;DHT22;8185;57.818;15.224;2022-12-29T00:33:44;4.10;99.90
16160;DHT22;8185;57.818;15.224;2022-12-29T00:36:29;4.10;99.90
16160;DHT22;8185;57.818;15.224;2022-12-29T00:38:59;4.10;99.90
16160;DHT22;8185;57.818;15.224;2022-12-29T00:41:43;4.10;99.90
16160;DHT22;8185;57.818;15.224;2022-12-29T00:44:28;4.00;99.90
16160;DHT22;8185;57.818;15.224;2022-12-29T00:46:56;4.10;99.90
16160;DHT22;8185;57.818;15.224;2022-12-29T00:49:27;4.10;99.90
16160;DHT22;8185;57.818;15.224;2022-12-29T00:51:57;4.10;99.90
16160;DHT22;8185;57.818;15.224;2022-12-29T00:54:24;4.00;99.90
16160;DHT22;8185;57.818;15.224;2022-12-29T00:56:51;4.00;99.90
16160;DHT22;8185;57.818;15.224;2022-12-29T00:59:19;4.10;99.90
16160;DHT22;8185;57.818;15.224;2022-12-29T01:01:46;4.00;99.90
16160;DHT22;8185;57.818;15.224;2022-12-29T01:04:15;4.20;99.90
16160;DHT22;8185;57.818;15.224;2022-12-29T01:06:42;4.00;99.90
16160;DHT22;8185;57.818;15.224;2022-12-29T01:09:09;4.00;99.90
16160;DHT22;8185;57.818;15.224;2022-12-29T01:11:54;4.00;99.90
16160;DHT22;8185;57.818;15.224;2022-12-29T01:14:21;4.00;99.90
16160;DHT22;8185;57.818;15.224;2022-12-29T01:16:48;4.00;99.90
16160;DHT22;8185;57.818;15.224;2022-12-29T01:19:17;4.10;99.90
16160;DHT22;8185;57.818;15.224;2022-12-29T01:21:44;4.10;99.90
16160;DHT22;8185;57.818;15.224;2022-12-29T01:24:11;4.10;99.90
16160;DHT22;8185;57.818;15.224;2022-12-29T01:26:38;4.10;99.90
16160;DHT22;8185;57.818;15.224;2022-12-29T01:29:05;4.10;99.90
16160;DHT22;8185;57.818;15.224;2022-12-29T01:33:59;4.10;99.90
16160;DHT22;8185;57.818;15.224;2022-12-29T01:36:28;4.00;99.90
16160;DHT22;8185;57.818;15.224;2022-12-29T01:38:55;4.00;99.90
16160;DHT22;8185;57.818;15.224;2022-12-29T01:41:22;4.00;99.90
16160;DHT22;8185;57.818;15.224;2022-12-29T01:43:49;4.00;99.90
16160;DHT22;8185;57.818;15.224;2022-12-29T01:46:20;4.00;99.90
16160;DHT22;8185;57.818;15.224;2022-12-29T01:48:51;4.00;99.90
16160;DHT22;8185;57.818;15.224;2022-12-29T01:51:19;3.90;99.90
16160;DHT22;8185;57.818;15.224;2022-12-29T01:53:49;4.00;99.90
16160;DHT22;8185;57.818;15.224;2022-12-29T01:56:16;4.00;99.90
16160;DHT22;8185;57.818;15.224;2022-12-29T01:58:44;3.90;99.90
16160;DHT22;8185;57.818;15.224;2022-12-29T02:01:13;3.90;99.90
16160;DHT22;8185;57.818;15.224;2022-12-29T02:03:40;3.90;99.90
16160;DHT22;8185;57.818;15.224;2022-12-29T02:06:08;3.90;99.90
16160;DHT22;8185;57.818;15.224;2022-12-29T02:08:38;3.90;99.90
16160;DHT22;8185;57.818;15.224;2022-12-29T02:11:08;3.90;99.90
16160;DHT22;8185;57.818;15.224;2022-12-29T02:13:35;3.80;99.90
16160;DHT22;8185;57.818;15.224;2022-12-29T02:16:04;3.80;99.90
16160;DHT22;8185;57.818;15.224;2022-12-29T02:18:35;3.80;99.90
16160;DHT22;8185;57.818;15.224;2022-12-29T02:24:04;3.80;99.90
16160;DHT22;8185;57.818;15.224;2022-12-29T02:26:38;3.80;99.90
16160;DHT22;8185;57.818;15.224;2022-12-29T02:29:20;3.80;99.90
16160;DHT22;8185;57.818;15.224;2022-12-29T02:31:52;3.90;99.90
16160;DHT22;8185;57.818;15.224;2022-12-29T02:34:22;3.90;99.90
16160;DHT22;8185;57.818;15.224;2022-12-29T02:36:54;3.90;99.90
16160;DHT22;8185;57.818;15.224;2022-12-29T02:39:27;3.80;99.90
16160;DHT22;8185;57.818;15.224;2022-12-29T02:41:58;3.80;99.90
16160;DHT22;8185;57.818;15.224;2022-12-29T02:44:33;3.80;99.90
16160;DHT22;8185;57.818;15.224;2022-12-29T02:47:04;3.80;99.90
16160;DHT22;8185;57.818;15.224;2022-12-29T02:49:36;3.80;99.90
16160;DHT22;8185;57.818;15.224;2022-12-29T02:52:07;3.80;99.90
16160;DHT22;8185;57.818;15.224;2022-12-29T02:54:37;4.00;99.90
16160;DHT22;8185;57.818;15.224;2022-12-29T02:57:11;3.90;99.90
16160;DHT22;8185;57.818;15.224;2022-12-29T02:59:39;4.00;99.90
16160;DHT22;8185;57.818;15.224;2022-12-29T03:02:14;4.20;99.90
16160;DHT22;8185;57.818;15.224;2022-12-29T03:04:56;4.00;99.90
16160;DHT22;8185;57.818;15.224;2022-12-29T03:07:29;4.00;99.90
16160;DHT22;8185;57.818;15.224;2022-12-29T03:10:00;4.10;99.90
16160;DHT22;8185;57.818;15.224;2022-12-29T03:12:29;4.00;99.90
16160;DHT22;8185;57.818;15.224;2022-12-29T03:15:15;3.90;99.90
16160;DHT22;8185;57.818;15.224;2022-12-29T03:18:05;4.00;99.90
16160;DHT22;8185;57.818;15.224;2022-12-29T03:20:36;3.90;99.90
16160;DHT22;8185;57.818;15.224;2022-12-29T03:23:05;3.90;99.90
16160;DHT22;8185;57.818;15.224;2022-12-29T03:25:33;3.90;99.90
16160;DHT22;8185;57.818;15.224;2022-12-29T03:28:03;4.00;99.90
16160;DHT22;8185;57.818;15.224;2022-12-29T03:30:31;4.00;99.90
16160;DHT22;8185;57.818;15.224;2022-12-29T03:32:59;3.90;99.90
16160;DHT22;8185;57.818;15.224;2022-12-29T03:35:29;4.10;99.90
16160;DHT22;8185;57.818;15.224;2022-12-29T03:37:58;4.00;99.90
16160;DHT22;8185;57.818;15.224;2022-12-29T03:40:25;4.00;99.90
16160;DHT22;8185;57.818;15.224;2022-12-29T03:42:53;3.90;99.90
16160;DHT22;8185;57.818;15.224;2022-12-29T03:45:20;3.90;99.90
16160;DHT22;8185;57.818;15.224;2022-12-29T03:47:47;4.20;99.90
16160;DHT22;8185;57.818;15.224;2022-12-29T03:50:14;3.90;99.90
16160;DHT22;8185;57.818;15.224;2022-12-29T03:52:42;4.00;99.90
16160;DHT22;8185;57.818;15.224;2022-12-29T03:55:09;4.00;99.90
16160;DHT22;8185;57.818;15.224;2022-12-29T03:57:36;3.90;99.90
16160;DHT22;8185;57.818;15.224;2022-12-29T04:00:04;4.00;99.90
16160;DHT22;8185;57.818;15.224;2022-12-29T04:02:31;3.80;99.90
16160;DHT22;8185;57.818;15.224;2022-12-29T04:04:58;3.90;99.90
16160;DHT22;8185;57.818;15.224;2022-12-29T04:07:25;3.90;99.90
16160;DHT22;8185;57.818;15.224;2022-12-29T04:09:53;4.10;99.90
16160;DHT22;8185;57.818;15.224;2022-12-29T04:12:20;4.00;99.90
16160;DHT22;8185;57.818;15.224;2022-12-29T04:14:47;4.10;99.90
16160;DHT22;8185;57.818;15.224;2022-12-29T04:17:14;4.30;99.90
16160;DHT22;8185;57.818;15.224;2022-12-29T04:19:41;3.90;99.90
16160;DHT22;8185;57.818;15.224;2022-12-29T04:22:08;3.90;99.90
16160;DHT22;8185;57.818;15.224;2022-12-29T04:24:37;4.10;99.90
16160;DHT22;8185;57.818;15.224;2022-12-29T04:27:05;3.90;99.90
16160;DHT22;8185;57.818;15.224;2022-12-29T04:29:32;3.90;99.90
16160;DHT22;8185;57.818;15.224;2022-12-29T04:31:59;3.90;99.90
16160;DHT22;8185;57.818;15.224;2022-12-29T04:34:26;4.30;99.90
16160;DHT22;8185;57.818;15.224;2022-12-29T04:36:53;4.10;99.90
16160;DHT22;8185;57.818;15.224;2022-12-29T04:39:20;4.00;99.90
16160;DHT22;8185;57.818;15.224;2022-12-29T04:41:47;4.00;99.90
16160;DHT22;8185;57.818;15.224;2022-12-29T04:44:16;3.90;99.90
16160;DHT22;8185;57.818;15.224;2022-12-29T04:46:43;4.00;99.90
16160;DHT22;8185;57.818;15.224;2022-12-29T04:49:10;4.00;99.90
16160;DHT22;8185;57.818;15.224;2022-12-29T04:51:37;4.00;99.90
16160;DHT22;8185;57.818;15.224;2022-12-29T04:54:04;4.00;99.90
16160;DHT22;8185;57.818;15.224;2022-12-29T04:56:31;4.00;99.90
16160;DHT22;8185;57.818;15.224;2022-12-29T04:58:58;4.00;99.90
16160;DHT22;8185;57.818;15.224;2022-12-29T05:01:26;4.00;99.90
16160;DHT22;8185;57.818;15.224;2022-12-29T05:03:54;3.90;99.90
16160;DHT22;8185;57.818;15.224;2022-12-29T05:06:21;3.90;99.90
16160;DHT22;8185;57.818;15.224;2022-12-29T05:08:48;4.00;99.90
16160;DHT22;8185;57.818;15.224;2022-12-29T05:11:15;3.90;99.90
16160;DHT22;8185;57.818;15.224;2022-12-29T05:13:44;4.30;99.90
16160;DHT22;8185;57.818;15.224;2022-12-29T05:16:11;4.00;99.90
16160;DHT22;8185;57.818;15.224;2022-12-29T05:18:39;4.00;99.90
16160;DHT22;8185;57.818;15.224;2022-12-29T05:21:06;4.00;99.90
16160;DHT22;8185;57.818;15.224;2022-12-29T05:23:33;4.00;99.90
16160;DHT22;8185;57.818;15.224;2022-12-29T05:26:00;4.00;99.90
16160;DHT22;8185;57.818;15.224;2022-12-29T05:28:27;4.00;99.90
16160;DHT22;8185;57.818;15.224;2022-12-29T05:30:54;4.10;99.90
16160;DHT22;8185;57.818;15.224;2022-12-29T05:33:21;4.10;99.90
16160;DHT22;8185;57.818;15.224;2022-12-29T05:35:50;4.10;99.90
16160;DHT22;8185;57.818;15.224;2022-12-29T05:38:16;4.00;99.90
16160;DHT22;8185;57.818;15.224;2022-12-29T05:40:44;4.00;99.90
16160;DHT22;8185;57.818;15.224;2022-12-29T05:43:11;4.20;99.90
16160;DHT22;8185;57.818;15.224;2022-12-29T05:45:38;4.00;99.90
16160;DHT22;8185;57.818;15.224;2022-12-29T05:48:05;4.00;99.90
16160;DHT22;8185;57.818;15.224;2022-12-29T05:50:32;4.10;99.90
16160;DHT22;8185;57.818;15.224;2022-12-29T05:53:00;4.10;99.90
16160;DHT22;8185;57.818;15.224;2022-12-29T05:55:27;4.10;99.90
16160;DHT22;8185;57.818;15.224;2022-12-29T05:57:54;4.10;99.90
16160;DHT22;8185;57.818;15.224;2022-12-29T06:00:21;4.10;99.90
16160;DHT22;8185;57.818;15.224;2022-12-29T06:02:48;4.20;99.90
16160;DHT22;8185;57.818;15.224;2022-12-29T06:05:15;4.10;99.90
16160;DHT22;8185;57.818;15.224;2022-12-29T06:07:42;4.20;99.90
16160;DHT22;8185;57.818;15.224;2022-12-29T06:10:11;4.20;99.90
16160;DHT22;8185;57.818;15.224;2022-12-29T06:12:38;4.20;99.90
16160;DHT22;8185;57.818;15.224;2022-12-29T06:15:06;4.20;99.90
16160;DHT22;8185;57.818;15.224;2022-12-29T06:17:33;4.20;99.90
16160;DHT22;8185;57.818;15.224;2022-12-29T06:20:00;4.20;99.90
16160;DHT22;8185;57.818;15.224;2022-12-29T06:22:27;4.30;99.90
16160;DHT22;8185;57.818;15.224;2022-12-29T06:24:54;4.30;99.90
16160;DHT22;8185;57.818;15.224;2022-12-29T06:27:23;4.30;99.90
16160;DHT22;8185;57.818;15.224;2022-12-29T06:29:49;4.40;99.90
16160;DHT22;8185;57.818;15.224;2022-12-29T06:32:16;4.40;99.90
16160;DHT22;8185;57.818;15.224;2022-12-29T06:34:43;4.40;99.90
16160;DHT22;8185;57.818;15.224;2022-12-29T06:37:11;4.50;99.90
16160;DHT22;8185;57.818;15.224;2022-12-29T06:39:38;4.50;99.90
16160;DHT22;8185;57.818;15.224;2022-12-29T06:42:05;4.50;99.90
16160;DHT22;8185;57.818;15.224;2022-12-29T06:44:33;4.50;99.90
16160;DHT22;8185;57.818;15.224;2022-12-29T06:47:00;4.50;99.90
16160;DHT22;8185;57.818;15.224;2022-12-29T06:49:27;4.50;99.90
16160;DHT22;8185;57.818;15.224;2022-12-29T06:51:54;4.60;99.90
16160;DHT22;8185;57.818;15.224;2022-12-29T06:54:23;4.60;99.90
16160;DHT22;8185;57.818;15.224;2022-12-29T06:56:50;4.60;99.90
16160;DHT22;8185;57.818;15.224;2022-12-29T06:59:17;4.60;99.90
16160;DHT22;8185;57.818;15.224;2022-12-29T07:01:46;4.60;99.90
16160;DHT22;8185;57.818;15.224;2022-12-29T07:04:12;4.70;99.90
16160;DHT22;8185;57.818;15.224;2022-12-29T07:06:40;4.70;99.90
16160;DHT22;8185;57.818;15.224;2022-12-29T07:09:07;4.70;99.90
16160;DHT22;8185;57.818;15.224;2022-12-29T07:11:34;4.80;99.90
16160;DHT22;8185;57.818;15.224;2022-12-29T07:14:01;4.70;99.90
16160;DHT22;8185;57.818;15.224;2022-12-29T07:16:28;4.70;99.90
16160;DHT22;8185;57.818;15.224;2022-12-29T07:18:57;4.70;99.90
16160;DHT22;8185;57.818;15.224;2022-12-29T07:21:24;4.80;99.90
16160;DHT22;8185;57.818;15.224;2022-12-29T07:23:51;4.80;99.90
16160;DHT22;8185;57.818;15.224;2022-12-29T07:26:20;4.80;99.90
16160;DHT22;8185;57.818;15.224;2022-12-29T07:28:47;4.80;99.90
16160;DHT22;8185;57.818;15.224;2022-12-29T07:31:14;4.90;99.90
16160;DHT22;8185;57.818;15.224;2022-12-29T07:33:42;4.80;99.90
16160;DHT22;8185;57.818;15.224;2022-12-29T07:36:11;4.80;99.90
16160;DHT22;8185;57.818;15.224;2022-12-29T07:38:38;4.90;99.90
16160;DHT22;8185;57.818;15.224;2022-12-29T07:41:05;5.00;99.90
16160;DHT22;8185;57.818;15.224;2022-12-29T07:43:32;4.80;99.90
16160;DHT22;8185;57.818;15.224;2022-12-29T07:45:59;4.80;99.90
16160;DHT22;8185;57.818;15.224;2022-12-29T07:48:26;4.80;99.90
16160;DHT22;8185;57.818;15.224;2022-12-29T07:50:53;4.80;99.90
16160;DHT22;8185;57.818;15.224;2022-12-29T07:53:22;4.90;99.90
16160;DHT22;8185;57.818;15.224;2022-12-29T07:55:49;4.90;99.90
16160;DHT22;8185;57.818;15.224;2022-12-29T07:58:16;4.90;99.90
16160;DHT22;8185;57.818;15.224;2022-12-29T08:00:44;5.00;99.90
16160;DHT22;8185;57.818;15.224;2022-12-29T08:03:11;5.00;99.90
16160;DHT22;8185;57.818;15.224;2022-12-29T08:05:37;5.00;99.90
16160;DHT22;8185;57.818;15.224;2022-12-29T08:08:04;5.10;99.90
16160;DHT22;8185;57.818;15.224;2022-12-29T08:10:33;5.10;99.90
16160;DHT22;8185;57.818;15.224;2022-12-29T08:13:00;5.30;99.90
16160;DHT22;8185;57.818;15.224;2022-12-29T08:15:27;5.20;99.90
16160;DHT22;8185;57.818;15.224;2022-12-29T08:17:54;5.20;99.90
16160;DHT22;8185;57.818;15.224;2022-12-29T08:20:21;5.30;99.90
16160;DHT22;8185;57.818;15.224;2022-12-29T08:22:48;5.20;99.90
16160;DHT22;8185;57.818;15.224;2022-12-29T08:25:15;5.30;99.90
16160;DHT22;8185;57.818;15.224;2022-12-29T08:27:43;5.20;99.90
16160;DHT22;8185;57.818;15.224;2022-12-29T08:30:11;5.20;99.90
16160;DHT22;8185;57.818;15.224;2022-12-29T08:32:38;5.30;99.90
16160;DHT22;8185;57.818;15.224;2022-12-29T08:35:05;5.30;99.90
16160;DHT22;8185;57.818;15.224;2022-12-29T08:37:32;5.40;99.90
16160;DHT22;8185;57.818;15.224;2022-12-29T08:39:59;5.40;99.90
16160;DHT22;8185;57.818;15.224;2022-12-29T08:42:29;5.40;99.90
16160;DHT22;8185;57.818;15.224;2022-12-29T08:44:57;5.40;99.90
16160;DHT22;8185;57.818;15.224;2022-12-29T08:47:24;5.40;99.90
16160;DHT22;8185;57.818;15.224;2022-12-29T08:49:52;5.50;99.90
16160;DHT22;8185;57.818;15.224;2022-12-29T08:52:19;5.50;99.90
16160;DHT22;8185;57.818;15.224;2022-12-29T08:54:46;5.50;99.90
16160;DHT22;8185;57.818;15.224;2022-12-29T08:57:14;5.50;99.90
16160;DHT22;8185;57.818;15.224;2022-12-29T08:59:41;5.60;99.90
16160;DHT22;8185;57.818;15.224;2022-12-29T09:02:12;5.60;99.90
16160;DHT22;8185;57.818;15.224;2022-12-29T09:04:39;5.60;99.90
16160;DHT22;8185;57.818;15.224;2022-12-29T09:07:06;5.60;99.90
16160;DHT22;8185;57.818;15.224;2022-12-29T09:09:34;5.60;99.90
16160;DHT22;8185;57.818;15.224;2022-12-29T09:12:01;5.70;99.90
16160;DHT22;8185;57.818;15.224;2022-12-29T09:14:28;5.60;99.90
16160;DHT22;8185;57.818;15.224;2022-12-29T09:16:55;5.60;99.90
16160;DHT22;8185;57.818;15.224;2022-12-29T09:19:42;5.70;99.90
16160;DHT22;8185;57.818;15.224;2022-12-29T09:22:09;5.70;99.90
16160;DHT22;8185;57.818;15.224;2022-12-29T09:27:04;5.80;99.90
16160;DHT22;8185;57.818;15.224;2022-12-29T09:29:31;5.90;99.90
16160;DHT22;8185;57.818;15.224;2022-12-29T09:31:58;5.80;99.90
16160;DHT22;8185;57.818;15.224;2022-12-29T09:34:25;5.80;99.90
16160;DHT22;8185;57.818;15.224;2022-12-29T09:36:54;5.90;99.90
16160;DHT22;8185;57.818;15.224;2022-12-29T09:39:22;6.00;99.90
16160;DHT22;8185;57.818;15.224;2022-12-29T09:41:56;6.00;99.90
16160;DHT22;8185;57.818;15.224;2022-12-29T09:44:35;6.10;99.90
16160;DHT22;8185;57.818;15.224;2022-12-29T09:47:10;6.10;99.90
16160;DHT22;8185;57.818;15.224;2022-12-29T09:49:42;6.20;99.90
16160;DHT22;8185;57.818;15.224;2022-12-29T09:52:15;6.20;99.90
16160;DHT22;8185;57.818;15.224;2022-12-29T09:54:49;6.20;99.90
16160;DHT22;8185;57.818;15.224;2022-12-29T09:57:22;6.30;99.90
16160;DHT22;8185;57.818;15.224;2022-12-29T09:59:52;6.30;99.90
16160;DHT22;8185;57.818;15.224;2022-12-29T10:02:29;6.30;99.90
16160;DHT22;8185;57.818;15.224;2022-12-29T10:04:58;6.40;99.90
16160;DHT22;8185;57.818;15.224;2022-12-29T10:07:36;6.40;99.90
16160;DHT22;8185;57.818;15.224;2022-12-29T10:10:22;6.50;99.90
16160;DHT22;8185;57.818;15.224;2022-12-29T10:13:01;6.40;99.90
16160;DHT22;8185;57.818;15.224;2022-12-29T10:15:40;6.40;99.90
16160;DHT22;8185;57.818;15.224;2022-12-29T10:18:22;6.40;99.90
16160;DHT22;8185;57.818;15.224;2022-12-29T10:20:54;6.40;99.90
16160;DHT22;8185;57.818;15.224;2022-12-29T10:23:31;6.40;99.90
16160;DHT22;8185;57.818;15.224;2022-12-29T10:26:01;6.50;99.90
16160;DHT22;8185;57.818;15.224;2022-12-29T10:28:36;6.50;99.90
16160;DHT22;8185;57.818;15.224;2022-12-29T10:31:08;6.50;99.90
16160;DHT22;8185;57.818;15.224;2022-12-29T10:33:39;6.60;99.90
16160;DHT22;8185;57.818;15.224;2022-12-29T10:36:14;6.60;99.90
16160;DHT22;8185;57.818;15.224;2022-12-29T10:38:48;6.70;99.90
16160;DHT22;8185;57.818;15.224;2022-12-29T10:41:21;6.70;99.90
16160;DHT22;8185;57.818;15.224;2022-12-29T10:43:52;6.70;99.90
16160;DHT22;8185;57.818;15.224;2022-12-29T10:46:23;6.70;99.90
16160;DHT22;8185;57.818;15.224;2022-12-29T10:48:51;6.80;99.90
16160;DHT22;8185;57.818;15.224;2022-12-29T10:51:21;6.80;99.90
16160;DHT22;8185;57.818;15.224;2022-12-29T10:53:53;6.80;99.90
16160;DHT22;8185;57.818;15.224;2022-12-29T10:56:38;6.80;99.90
16160;DHT22;8185;57.818;15.224;2022-12-29T10:59:13;6.80;99.90
16160;DHT22;8185;57.818;15.224;2022-12-29T11:01:49;6.80;99.90
16160;DHT22;8185;57.818;15.224;2022-12-29T11:04:33;6.80;99.90
16160;DHT22;8185;57.818;15.224;2022-12-29T11:07:03;6.80;99.90
16160;DHT22;8185;57.818;15.224;2022-12-29T11:09:36;6.90;99.90
16160;DHT22;8185;57.818;15.224;2022-12-29T11:12:20;6.90;99.90
16160;DHT22;8185;57.818;15.224;2022-12-29T11:15:02;6.90;99.90
16160;DHT22;8185;57.818;15.224;2022-12-29T11:17:30;6.90;99.90
16160;DHT22;8185;57.818;15.224;2022-12-29T11:23:05;7.00;99.90
16160;DHT22;8185;57.818;15.224;2022-12-29T11:26:13;7.00;99.90
16160;DHT22;8185;57.818;15.224;2022-12-29T11:28:42;7.00;99.90
16160;DHT22;8185;57.818;15.224;2022-12-29T11:31:10;7.00;99.90
16160;DHT22;8185;57.818;15.224;2022-12-29T11:33:38;7.00;99.90
16160;DHT22;8185;57.818;15.224;2022-12-29T11:36:10;7.00;99.90
16160;DHT22;8185;57.818;15.224;2022-12-29T11:38:40;7.00;99.90
16160;DHT22;8185;57.818;15.224;2022-12-29T11:41:13;7.00;99.90
16160;DHT22;8185;57.818;15.224;2022-12-29T11:43:46;7.00;99.90
16160;DHT22;8185;57.818;15.224;2022-12-29T11:46:16;7.00;99.90
16160;DHT22;8185;57.818;15.224;2022-12-29T11:48:46;7.00;99.90
16160;DHT22;8185;57.818;15.224;2022-12-29T11:51:22;7.00;99.90
16160;DHT22;8185;57.818;15.224;2022-12-29T11:53:51;7.10;99.90
16160;DHT22;8185;57.818;15.224;2022-12-29T11:56:30;7.10;99.90
16160;DHT22;8185;57.818;15.224;2022-12-29T12:02:26;7.10;99.90
16160;DHT22;8185;57.818;15.224;2022-12-29T12:05:02;7.00;99.90
16160;DHT22;8185;57.818;15.224;2022-12-29T12:07:38;7.00;99.90
16160;DHT22;8185;57.818;15.224;2022-12-29T12:10:20;7.10;99.90
16160;DHT22;8185;57.818;15.224;2022-12-29T12:12:54;7.10;99.90
16160;DHT22;8185;57.818;15.224;2022-12-29T12:15:27;7.20;99.90
16160;DHT22;8185;57.818;15.224;2022-12-29T12:18:01;7.20;99.90
16160;DHT22;8185;57.818;15.224;2022-12-29T12:20:38;7.20;99.90
16160;DHT22;8185;57.818;15.224;2022-12-29T12:23:13;7.20;99.90
16160;DHT22;8185;57.818;15.224;2022-12-29T12:25:55;7.20;99.90
16160;DHT22;8185;57.818;15.224;2022-12-29T12:28:37;7.20;99.90
16160;DHT22;8185;57.818;15.224;2022-12-29T12:31:16;7.20;99.90
16160;DHT22;8185;57.818;15.224;2022-12-29T12:33:46;7.20;99.90
16160;DHT22;8185;57.818;15.224;2022-12-29T12:39:11;7.20;99.90
16160;DHT22;8185;57.818;15.224;2022-12-29T12:41:48;7.20;99.90
16160;DHT22;8185;57.818;15.224;2022-12-29T12:44:29;7.20;99.90
16160;DHT22;8185;57.818;15.224;2022-12-29T12:47:29;7.20;99.90
16160;DHT22;8185;57.818;15.224;2022-12-29T12:50:15;7.20;99.90
16160;DHT22;8185;57.818;15.224;2022-12-29T12:53:08;7.20;99.90
16160;DHT22;8185;57.818;15.224;2022-12-29T12:55:51;7.20;99.90
16160;DHT22;8185;57.818;15.224;2022-12-29T12:58:28;7.20;99.90
16160;DHT22;8185;57.818;15.224;2022-12-29T13:01:14;7.30;99.90
16160;DHT22;8185;57.818;15.224;2022-12-29T13:03:56;7.30;99.90
16160;DHT22;8185;57.818;15.224;2022-12-29T13:06:34;7.30;99.90
16160;DHT22;8185;57.818;15.224;2022-12-29T13:09:22;7.30;99.90
16160;DHT22;8185;57.818;15.224;2022-12-29T13:12:05;7.30;99.90
16160;DHT22;8185;57.818;15.224;2022-12-29T13:14:46;7.30;99.90
16160;DHT22;8185;57.818;15.224;2022-12-29T13:17:26;7.20;99.90
16160;DHT22;8185;57.818;15.224;2022-12-29T13:20:04;7.20;99.90
16160;DHT22;8185;57.818;15.224;2022-12-29T13:22:41;7.20;99.90
16160;DHT22;8185;57.818;15.224;2022-12-29T13:25:27;7.20;99.90
16160;DHT22;8185;57.818;15.224;2022-12-29T13:28:01;7.20;99.90
16160;DHT22;8185;57.818;15.224;2022-12-29T13:30:34;7.20;99.90
16160;DHT22;8185;57.818;15.224;2022-12-29T13:33:14;7.20;99.90
16160;DHT22;8185;57.818;15.224;2022-12-29T13:35:54;7.20;99.90
16160;DHT22;8185;57.818;15.224;2022-12-29T13:38:25;7.20;99.90
16160;DHT22;8185;57.818;15.224;2022-12-29T13:40:59;7.20;99.90
16160;DHT22;8185;57.818;15.224;2022-12-29T13:43:29;7.10;99.90
16160;DHT22;8185;57.818;15.224;2022-12-29T13:46:00;7.20;99.90
16160;DHT22;8185;57.818;15.224;2022-12-29T13:48:37;7.20;99.90
16160;DHT22;8185;57.818;15.224;2022-12-29T13:51:08;7.10;99.90
16160;DHT22;8185;57.818;15.224;2022-12-29T13:53:46;7.10;99.90
16160;DHT22;8185;57.818;15.224;2022-12-29T13:56:24;7.10;99.90
16160;DHT22;8185;57.818;15.224;2022-12-29T13:58:56;7.10;99.90
16160;DHT22;8185;57.818;15.224;2022-12-29T14:01:37;7.00;99.90
16160;DHT22;8185;57.818;15.224;2022-12-29T14:04:11;7.00;99.90
16160;DHT22;8185;57.818;15.224;2022-12-29T14:06:39;7.10;99.90
16160;DHT22;8185;57.818;15.224;2022-12-29T14:12:36;7.10;99.90
16160;DHT22;8185;57.818;15.224;2022-12-29T14:15:28;7.10;99.90
16160;DHT22;8185;57.818;15.224;2022-12-29T14:18:10;7.10;99.90
16160;DHT22;8185;57.818;15.224;2022-12-29T14:20:37;7.10;99.90
16160;DHT22;8185;57.818;15.224;2022-12-29T14:23:24;7.10;99.90
16160;DHT22;8185;57.818;15.224;2022-12-29T14:25:59;7.00;99.90
16160;DHT22;8185;57.818;15.224;2022-12-29T14:28:28;7.00;99.90
16160;DHT22;8185;57.818;15.224;2022-12-29T14:30:56;7.00;99.90
16160;DHT22;8185;57.818;15.224;2022-12-29T14:33:26;7.00;99.90
16160;DHT22;8185;57.818;15.224;2022-12-29T14:35:55;7.00;99.90
16160;DHT22;8185;57.818;15.224;2022-12-29T14:38:28;7.00;99.90
16160;DHT22;8185;57.818;15.224;2022-12-29T14:41:27;7.00;99.90
16160;DHT22;8185;57.818;15.224;2022-12-29T14:43:59;7.00;99.90
16160;DHT22;8185;57.818;15.224;2022-12-29T14:46:46;7.00;99.90
16160;DHT22;8185;57.818;15.224;2022-12-29T14:49:18;7.00;99.90
16160;DHT22;8185;57.818;15.224;2022-12-29T14:51:46;7.00;99.90
16160;DHT22;8185;57.818;15.224;2022-12-29T14:54:46;7.00;99.90
16160;DHT22;8185;57.818;15.224;2022-12-29T15:00:14;6.90;99.90
16160;DHT22;8185;57.818;15.224;2022-12-29T15:02:46;6.90;99.90
16160;DHT22;8185;57.818;15.224;2022-12-29T15:05:26;6.90;99.90
16160;DHT22;8185;57.818;15.224;2022-12-29T15:07:56;6.90;99.90
16160;DHT22;8185;57.818;15.224;2022-12-29T15:10:24;6.90;99.90
16160;DHT22;8185;57.818;15.224;2022-12-29T15:12:54;6.90;99.90
16160;DHT22;8185;57.818;15.224;2022-12-29T15:15:24;6.90;99.90
16160;DHT22;8185;57.818;15.224;2022-12-29T15:17:52;6.90;99.90
16160;DHT22;8185;57.818;15.224;2022-12-29T15:20:26;6.90;99.90
16160;DHT22;8185;57.818;15.224;2022-12-29T15:22:56;6.80;99.90
16160;DHT22;8185;57.818;15.224;2022-12-29T15:25:24;6.80;99.90
16160;DHT22;8185;57.818;15.224;2022-12-29T15:27:55;6.80;99.90
16160;DHT22;8185;57.818;15.224;2022-12-29T15:30:23;6.80;99.90
16160;DHT22;8185;57.818;15.224;2022-12-29T15:32:51;6.80;99.90
16160;DHT22;8185;57.818;15.224;2022-12-29T15:35:33;6.80;99.90
16160;DHT22;8185;57.818;15.224;2022-12-29T15:38:13;6.80;99.90
16160;DHT22;8185;57.818;15.224;2022-12-29T15:40:43;6.80;99.90
16160;DHT22;8185;57.818;15.224;2022-12-29T15:43:34;6.80;99.90
16160;DHT22;8185;57.818;15.224;2022-12-29T15:46:04;6.80;99.90
16160;DHT22;8185;57.818;15.224;2022-12-29T15:48:31;6.80;99.90
16160;DHT22;8185;57.818;15.224;2022-12-29T15:51:01;6.80;99.90
16160;DHT22;8185;57.818;15.224;2022-12-29T15:53:30;6.80;99.90
16160;DHT22;8185;57.818;15.224;2022-12-29T15:56:00;6.80;99.90
16160;DHT22;8185;57.818;15.224;2022-12-29T15:58:30;6.80;99.90
16160;DHT22;8185;57.818;15.224;2022-12-29T16:00:59;6.80;99.90
16160;DHT22;8185;57.818;15.224;2022-12-29T16:03:29;6.80;99.90
16160;DHT22;8185;57.818;15.224;2022-12-29T16:09:03;6.70;99.90
16160;DHT22;8185;57.818;15.224;2022-12-29T16:11:34;6.60;99.90
16160;DHT22;8185;57.818;15.224;2022-12-29T16:14:02;6.60;99.90
16160;DHT22;8185;57.818;15.224;2022-12-29T16:16:36;6.60;99.90
16160;DHT22;8185;57.818;15.224;2022-12-29T16:19:12;6.60;99.90
16160;DHT22;8185;57.818;15.224;2022-12-29T16:21:41;6.60;99.90
16160;DHT22;8185;57.818;15.224;2022-12-29T16:24:14;6.60;99.90
16160;DHT22;8185;57.818;15.224;2022-12-29T16:26:47;6.60;99.90
16160;DHT22;8185;57.818;15.224;2022-12-29T16:29:15;6.60;99.90
16160;DHT22;8185;57.818;15.224;2022-12-29T16:31:51;6.60;99.90
16160;DHT22;8185;57.818;15.224;2022-12-29T16:34:24;6.60;99.90
16160;DHT22;8185;57.818;15.224;2022-12-29T16:36:54;6.60;99.90